sensor_id;sensor_type;location;lat;lon;timestamp;P1;durP1;ratioP1;P2;durP2;ratioP2
64795;SDS011;51229;51.980;6.722;2022-08-01T00:00:33;12.00;;;8.32;;
64795;SDS011;51229;51.980;6.722;2022-08-01T00:02:59;12.20;;;8.02;;
64795;SDS011;51229;51.980;6.722;2022-08-01T00:05:25;12.63;;;8.15;;
64795;SDS011;51229;51.980;6.722;2022-08-01T00:07:51;11.57;;;7.15;;
64795;SDS011;51229;51.980;6.722;2022-08-01T00:10:17;13.05;;;7.13;;
64795;SDS011;51229;51.980;6.722;2022-08-01T00:12:43;12.90;;;6.78;;
64795;SDS011;51229;51.980;6.722;2022-08-01T00:15:10;12.57;;;7.78;;
64795;SDS011;51229;51.980;6.722;2022-08-01T00:17:38;12.38;;;7.47;;
64795;SDS011;51229;51.980;6.722;2022-08-01T00:20:05;11.38;;;7.68;;
64795;SDS011;51229;51.980;6.722;2022-08-01T00:22:33;11.70;;;7.68;;
64795;SDS011;51229;51.980;6.722;2022-08-01T00:24:59;10.45;;;7.13;;
64795;SDS011;51229;51.980;6.722;2022-08-01T00:27:25;11.25;;;7.22;;
64795;SDS011;51229;51.980;6.722;2022-08-01T00:29:51;9.73;;;6.80;;
64795;SDS011;51229;51.980;6.722;2022-08-01T00:32:17;11.02;;;6.40;;
64795;SDS011;51229;51.980;6.722;2022-08-01T00:34:42;10.35;;;7.68;;
64795;SDS011;51229;51.980;6.722;2022-08-01T00:37:08;12.15;;;7.55;;
64795;SDS011;51229;51.980;6.722;2022-08-01T00:39:34;11.00;;;6.85;;
64795;SDS011;51229;51.980;6.722;2022-08-01T00:42:01;9.73;;;7.03;;
64795;SDS011;51229;51.980;6.722;2022-08-01T00:44:32;8.38;;;5.68;;
64795;SDS011;51229;51.980;6.722;2022-08-01T00:46:57;10.13;;;6.40;;
64795;SDS011;51229;51.980;6.722;2022-08-01T00:49:23;9.02;;;5.63;;
64795;SDS011;51229;51.980;6.722;2022-08-01T00:51:49;9.75;;;5.45;;
64795;SDS011;51229;51.980;6.722;2022-08-01T00:54:15;9.75;;;6.68;;
64795;SDS011;51229;51.980;6.722;2022-08-01T00:56:40;10.32;;;5.70;;
64795;SDS011;51229;51.980;6.722;2022-08-01T00:59:06;9.23;;;5.93;;
64795;SDS011;51229;51.980;6.722;2022-08-01T01:01:33;7.53;;;5.53;;
64795;SDS011;51229;51.980;6.722;2022-08-01T01:03:59;8.30;;;5.85;;
64795;SDS011;51229;51.980;6.722;2022-08-01T01:12:36;8.65;;;5.30;;
64795;SDS011;51229;51.980;6.722;2022-08-01T01:15:34;8.05;;;5.35;;
64795;SDS011;51229;51.980;6.722;2022-08-01T01:18:14;11.00;;;6.15;;
64795;SDS011;51229;51.980;6.722;2022-08-01T01:20:46;8.38;;;5.30;;
64795;SDS011;51229;51.980;6.722;2022-08-01T01:23:21;10.52;;;5.40;;
64795;SDS011;51229;51.980;6.722;2022-08-01T01:31:57;12.98;;;5.70;;
64795;SDS011;51229;51.980;6.722;2022-08-01T01:34:29;7.53;;;4.47;;
64795;SDS011;51229;51.980;6.722;2022-08-01T01:36:58;8.13;;;5.70;;
64795;SDS011;51229;51.980;6.722;2022-08-01T01:39:27;9.65;;;5.43;;
64795;SDS011;51229;51.980;6.722;2022-08-01T01:41:54;7.28;;;4.45;;
64795;SDS011;51229;51.980;6.722;2022-08-01T01:44:21;7.97;;;4.88;;
64795;SDS011;51229;51.980;6.722;2022-08-01T01:46:48;7.55;;;4.43;;
64795;SDS011;51229;51.980;6.722;2022-08-01T01:49:15;7.07;;;4.70;;
64795;SDS011;51229;51.980;6.722;2022-08-01T01:51:44;7.90;;;4.70;;
64795;SDS011;51229;51.980;6.722;2022-08-01T01:54:13;8.70;;;4.90;;
64795;SDS011;51229;51.980;6.722;2022-08-01T01:56:38;7.85;;;4.32;;
64795;SDS011;51229;51.980;6.722;2022-08-01T01:59:13;7.25;;;3.53;;
64795;SDS011;51229;51.980;6.722;2022-08-01T02:01:49;6.82;;;4.38;;
64795;SDS011;51229;51.980;6.722;2022-08-01T02:04:17;6.65;;;3.78;;
64795;SDS011;51229;51.980;6.722;2022-08-01T02:06:45;7.43;;;3.85;;
64795;SDS011;51229;51.980;6.722;2022-08-01T02:09:16;6.55;;;4.55;;
64795;SDS011;51229;51.980;6.722;2022-08-01T02:11:44;5.72;;;3.80;;
64795;SDS011;51229;51.980;6.722;2022-08-01T02:14:12;8.00;;;4.80;;
64795;SDS011;51229;51.980;6.722;2022-08-01T02:16:39;7.20;;;4.22;;
64795;SDS011;51229;51.980;6.722;2022-08-01T02:19:06;8.40;;;4.85;;
64795;SDS011;51229;51.980;6.722;2022-08-01T02:21:35;6.40;;;4.35;;
64795;SDS011;51229;51.980;6.722;2022-08-01T02:24:09;7.07;;;4.88;;
64795;SDS011;51229;51.980;6.722;2022-08-01T02:26:46;6.90;;;4.50;;
64795;SDS011;51229;51.980;6.722;2022-08-01T02:29:16;7.82;;;4.82;;
64795;SDS011;51229;51.980;6.722;2022-08-01T02:31:47;7.75;;;4.20;;
64795;SDS011;51229;51.980;6.722;2022-08-01T02:34:17;8.43;;;4.80;;
64795;SDS011;51229;51.980;6.722;2022-08-01T02:36:44;7.00;;;4.82;;
64795;SDS011;51229;51.980;6.722;2022-08-01T02:39:13;6.43;;;4.20;;
64795;SDS011;51229;51.980;6.722;2022-08-01T02:41:43;7.68;;;4.32;;
64795;SDS011;51229;51.980;6.722;2022-08-01T02:44:15;7.65;;;4.90;;
64795;SDS011;51229;51.980;6.722;2022-08-01T02:47:00;6.00;;;3.58;;
64795;SDS011;51229;51.980;6.722;2022-08-01T02:49:33;7.72;;;4.45;;
64795;SDS011;51229;51.980;6.722;2022-08-01T02:52:03;7.03;;;4.47;;
64795;SDS011;51229;51.980;6.722;2022-08-01T02:54:34;6.63;;;4.10;;
64795;SDS011;51229;51.980;6.722;2022-08-01T02:57:01;6.30;;;4.25;;
64795;SDS011;51229;51.980;6.722;2022-08-01T02:59:28;6.85;;;4.25;;
64795;SDS011;51229;51.980;6.722;2022-08-01T03:01:55;7.70;;;4.30;;
64795;SDS011;51229;51.980;6.722;2022-08-01T03:04:23;6.15;;;3.65;;
64795;SDS011;51229;51.980;6.722;2022-08-01T03:06:50;6.78;;;3.95;;
64795;SDS011;51229;51.980;6.722;2022-08-01T03:09:19;5.88;;;4.00;;
64795;SDS011;51229;51.980;6.722;2022-08-01T03:11:46;6.90;;;4.43;;
64795;SDS011;51229;51.980;6.722;2022-08-01T03:14:14;8.50;;;4.60;;
64795;SDS011;51229;51.980;6.722;2022-08-01T03:16:41;7.10;;;4.40;;
64795;SDS011;51229;51.980;6.722;2022-08-01T03:19:09;7.25;;;4.10;;
64795;SDS011;51229;51.980;6.722;2022-08-01T03:21:37;8.13;;;4.15;;
64795;SDS011;51229;51.980;6.722;2022-08-01T03:24:05;7.40;;;4.15;;
64795;SDS011;51229;51.980;6.722;2022-08-01T03:26:33;6.55;;;3.88;;
64795;SDS011;51229;51.980;6.722;2022-08-01T03:29:04;6.40;;;4.10;;
64795;SDS011;51229;51.980;6.722;2022-08-01T03:31:35;6.53;;;4.05;;
64795;SDS011;51229;51.980;6.722;2022-08-01T03:34:03;6.07;;;3.35;;
64795;SDS011;51229;51.980;6.722;2022-08-01T03:36:29;7.10;;;4.35;;
64795;SDS011;51229;51.980;6.722;2022-08-01T03:38:59;7.20;;;4.18;;
64795;SDS011;51229;51.980;6.722;2022-08-01T03:41:29;7.63;;;4.13;;
64795;SDS011;51229;51.980;6.722;2022-08-01T03:44:03;7.28;;;3.85;;
64795;SDS011;51229;51.980;6.722;2022-08-01T03:46:34;6.50;;;4.35;;
64795;SDS011;51229;51.980;6.722;2022-08-01T03:49:17;5.45;;;3.40;;
64795;SDS011;51229;51.980;6.722;2022-08-01T03:51:45;8.88;;;4.40;;
64795;SDS011;51229;51.980;6.722;2022-08-01T03:54:14;10.43;;;4.40;;
64795;SDS011;51229;51.980;6.722;2022-08-01T03:56:42;8.27;;;5.20;;
64795;SDS011;51229;51.980;6.722;2022-08-01T03:59:09;9.18;;;4.55;;
64795;SDS011;51229;51.980;6.722;2022-08-01T04:01:35;8.23;;;4.85;;
64795;SDS011;51229;51.980;6.722;2022-08-01T04:04:01;9.15;;;5.13;;
64795;SDS011;51229;51.980;6.722;2022-08-01T04:06:30;9.48;;;4.75;;
64795;SDS011;51229;51.980;6.722;2022-08-01T04:08:56;6.93;;;4.45;;
64795;SDS011;51229;51.980;6.722;2022-08-01T04:11:25;9.75;;;5.10;;
64795;SDS011;51229;51.980;6.722;2022-08-01T04:13:52;7.40;;;4.25;;
64795;SDS011;51229;51.980;6.722;2022-08-01T04:16:19;8.40;;;4.70;;
64795;SDS011;51229;51.980;6.722;2022-08-01T04:18:45;8.02;;;5.43;;
64795;SDS011;51229;51.980;6.722;2022-08-01T04:21:11;8.90;;;5.25;;
64795;SDS011;51229;51.980;6.722;2022-08-01T04:23:38;7.63;;;5.22;;
64795;SDS011;51229;51.980;6.722;2022-08-01T04:26:06;8.15;;;5.15;;
64795;SDS011;51229;51.980;6.722;2022-08-01T04:28:34;7.03;;;3.90;;
64795;SDS011;51229;51.980;6.722;2022-08-01T04:31:02;9.15;;;4.78;;
64795;SDS011;51229;51.980;6.722;2022-08-01T04:33:34;8.30;;;5.30;;
64795;SDS011;51229;51.980;6.722;2022-08-01T04:36:03;9.23;;;4.88;;
64795;SDS011;51229;51.980;6.722;2022-08-01T04:38:34;7.57;;;5.20;;
64795;SDS011;51229;51.980;6.722;2022-08-01T04:41:01;7.95;;;5.70;;
64795;SDS011;51229;51.980;6.722;2022-08-01T04:43:28;8.55;;;5.70;;
64795;SDS011;51229;51.980;6.722;2022-08-01T04:45:54;7.53;;;5.28;;
64795;SDS011;51229;51.980;6.722;2022-08-01T04:48:20;9.30;;;6.20;;
64795;SDS011;51229;51.980;6.722;2022-08-01T04:50:49;10.27;;;6.57;;
64795;SDS011;51229;51.980;6.722;2022-08-01T04:53:15;10.07;;;6.05;;
64795;SDS011;51229;51.980;6.722;2022-08-01T04:55:43;9.98;;;5.72;;
64795;SDS011;51229;51.980;6.722;2022-08-01T04:58:11;12.13;;;6.38;;
64795;SDS011;51229;51.980;6.722;2022-08-01T05:00:37;8.85;;;5.22;;
64795;SDS011;51229;51.980;6.722;2022-08-01T05:03:03;7.93;;;5.95;;
64795;SDS011;51229;51.980;6.722;2022-08-01T05:05:29;10.30;;;6.30;;
64795;SDS011;51229;51.980;6.722;2022-08-01T05:07:55;9.18;;;6.22;;
64795;SDS011;51229;51.980;6.722;2022-08-01T05:10:21;9.38;;;6.10;;
64795;SDS011;51229;51.980;6.722;2022-08-01T05:12:47;8.93;;;6.43;;
64795;SDS011;51229;51.980;6.722;2022-08-01T05:15:12;10.13;;;6.82;;
64795;SDS011;51229;51.980;6.722;2022-08-01T05:17:38;12.15;;;6.32;;
64795;SDS011;51229;51.980;6.722;2022-08-01T05:20:04;10.70;;;7.03;;
64795;SDS011;51229;51.980;6.722;2022-08-01T05:22:31;8.30;;;5.47;;
64795;SDS011;51229;51.980;6.722;2022-08-01T05:24:57;11.10;;;6.75;;
64795;SDS011;51229;51.980;6.722;2022-08-01T05:27:24;9.77;;;6.32;;
64795;SDS011;51229;51.980;6.722;2022-08-01T05:29:50;9.45;;;6.78;;
64795;SDS011;51229;51.980;6.722;2022-08-01T05:32:16;10.15;;;6.25;;
64795;SDS011;51229;51.980;6.722;2022-08-01T05:34:42;9.75;;;6.43;;
64795;SDS011;51229;51.980;6.722;2022-08-01T05:37:08;9.32;;;6.50;;
64795;SDS011;51229;51.980;6.722;2022-08-01T05:39:34;8.57;;;6.35;;
64795;SDS011;51229;51.980;6.722;2022-08-01T05:42:00;9.60;;;5.88;;
64795;SDS011;51229;51.980;6.722;2022-08-01T05:44:26;8.13;;;5.68;;
64795;SDS011;51229;51.980;6.722;2022-08-01T05:46:51;7.97;;;5.38;;
64795;SDS011;51229;51.980;6.722;2022-08-01T05:49:17;8.13;;;5.53;;
64795;SDS011;51229;51.980;6.722;2022-08-01T05:51:43;8.05;;;5.13;;
64795;SDS011;51229;51.980;6.722;2022-08-01T05:54:08;8.43;;;6.10;;
64795;SDS011;51229;51.980;6.722;2022-08-01T05:56:34;6.53;;;5.13;;
64795;SDS011;51229;51.980;6.722;2022-08-01T05:59:00;9.45;;;5.97;;
64795;SDS011;51229;51.980;6.722;2022-08-01T06:01:26;8.45;;;6.00;;
64795;SDS011;51229;51.980;6.722;2022-08-01T06:03:51;9.05;;;6.28;;
64795;SDS011;51229;51.980;6.722;2022-08-01T06:06:19;7.43;;;5.50;;
64795;SDS011;51229;51.980;6.722;2022-08-01T06:08:45;7.28;;;5.47;;
64795;SDS011;51229;51.980;6.722;2022-08-01T06:11:11;8.95;;;5.60;;
64795;SDS011;51229;51.980;6.722;2022-08-01T06:13:36;8.80;;;5.50;;
64795;SDS011;51229;51.980;6.722;2022-08-01T06:16:02;7.05;;;4.68;;
64795;SDS011;51229;51.980;6.722;2022-08-01T06:18:28;7.03;;;4.97;;
64795;SDS011;51229;51.980;6.722;2022-08-01T06:20:53;7.57;;;5.22;;
64795;SDS011;51229;51.980;6.722;2022-08-01T06:23:20;6.82;;;5.25;;
64795;SDS011;51229;51.980;6.722;2022-08-01T06:25:46;7.13;;;4.53;;
64795;SDS011;51229;51.980;6.722;2022-08-01T06:28:12;7.55;;;5.40;;
64795;SDS011;51229;51.980;6.722;2022-08-01T06:30:38;6.88;;;4.75;;
64795;SDS011;51229;51.980;6.722;2022-08-01T06:33:04;5.57;;;4.28;;
64795;SDS011;51229;51.980;6.722;2022-08-01T06:35:29;7.47;;;4.97;;
64795;SDS011;51229;51.980;6.722;2022-08-01T06:37:56;6.75;;;4.50;;
64795;SDS011;51229;51.980;6.722;2022-08-01T06:40:22;6.18;;;4.13;;
64795;SDS011;51229;51.980;6.722;2022-08-01T06:42:48;6.90;;;4.20;;
64795;SDS011;51229;51.980;6.722;2022-08-01T06:45:14;7.13;;;4.15;;
64795;SDS011;51229;51.980;6.722;2022-08-01T06:47:41;7.00;;;4.45;;
64795;SDS011;51229;51.980;6.722;2022-08-01T06:50:08;5.45;;;3.78;;
64795;SDS011;51229;51.980;6.722;2022-08-01T06:52:35;5.68;;;4.07;;
64795;SDS011;51229;51.980;6.722;2022-08-01T06:55:01;5.47;;;3.67;;
64795;SDS011;51229;51.980;6.722;2022-08-01T06:57:27;5.43;;;3.92;;
64795;SDS011;51229;51.980;6.722;2022-08-01T06:59:53;5.63;;;3.50;;
64795;SDS011;51229;51.980;6.722;2022-08-01T07:02:20;5.78;;;3.40;;
64795;SDS011;51229;51.980;6.722;2022-08-01T07:04:45;4.80;;;3.40;;
64795;SDS011;51229;51.980;6.722;2022-08-01T07:07:11;5.35;;;3.50;;
64795;SDS011;51229;51.980;6.722;2022-08-01T07:09:37;5.38;;;3.60;;
64795;SDS011;51229;51.980;6.722;2022-08-01T07:12:05;5.75;;;3.92;;
64795;SDS011;51229;51.980;6.722;2022-08-01T07:14:31;5.65;;;3.78;;
64795;SDS011;51229;51.980;6.722;2022-08-01T07:16:57;3.67;;;2.22;;
64795;SDS011;51229;51.980;6.722;2022-08-01T07:19:22;3.92;;;1.40;;
64795;SDS011;51229;51.980;6.722;2022-08-01T07:21:48;1.58;;;1.10;;
64795;SDS011;51229;51.980;6.722;2022-08-01T07:24:14;1.60;;;1.00;;
64795;SDS011;51229;51.980;6.722;2022-08-01T07:26:40;2.17;;;1.20;;
64795;SDS011;51229;51.980;6.722;2022-08-01T07:29:07;1.70;;;1.00;;
64795;SDS011;51229;51.980;6.722;2022-08-01T07:31:33;4.20;;;1.20;;
64795;SDS011;51229;51.980;6.722;2022-08-01T07:33:58;1.17;;;0.85;;
64795;SDS011;51229;51.980;6.722;2022-08-01T07:36:24;1.67;;;0.90;;
64795;SDS011;51229;51.980;6.722;2022-08-01T07:38:50;2.38;;;1.27;;
64795;SDS011;51229;51.980;6.722;2022-08-01T07:41:15;2.55;;;1.30;;
64795;SDS011;51229;51.980;6.722;2022-08-01T07:43:41;2.47;;;1.35;;
64795;SDS011;51229;51.980;6.722;2022-08-01T07:46:07;2.53;;;1.40;;
64795;SDS011;51229;51.980;6.722;2022-08-01T07:48:33;2.63;;;1.50;;
64795;SDS011;51229;51.980;6.722;2022-08-01T07:50:58;2.55;;;1.50;;
64795;SDS011;51229;51.980;6.722;2022-08-01T07:53:24;3.28;;;1.70;;
64795;SDS011;51229;51.980;6.722;2022-08-01T07:55:50;2.83;;;2.00;;
64795;SDS011;51229;51.980;6.722;2022-08-01T07:58:16;3.00;;;1.90;;
64795;SDS011;51229;51.980;6.722;2022-08-01T08:00:42;3.97;;;1.88;;
64795;SDS011;51229;51.980;6.722;2022-08-01T08:03:08;3.35;;;2.10;;
64795;SDS011;51229;51.980;6.722;2022-08-01T08:05:34;3.55;;;1.98;;
64795;SDS011;51229;51.980;6.722;2022-08-01T08:08:07;4.53;;;2.13;;
64795;SDS011;51229;51.980;6.722;2022-08-01T08:10:33;4.13;;;2.20;;
64795;SDS011;51229;51.980;6.722;2022-08-01T08:12:59;3.92;;;2.20;;
64795;SDS011;51229;51.980;6.722;2022-08-01T08:15:28;3.00;;;2.10;;
64795;SDS011;51229;51.980;6.722;2022-08-01T08:17:54;3.80;;;2.50;;
64795;SDS011;51229;51.980;6.722;2022-08-01T08:20:20;3.60;;;2.63;;
64795;SDS011;51229;51.980;6.722;2022-08-01T08:22:52;4.17;;;2.80;;
64795;SDS011;51229;51.980;6.722;2022-08-01T08:25:18;3.92;;;2.10;;
64795;SDS011;51229;51.980;6.722;2022-08-01T08:27:44;3.65;;;1.90;;
64795;SDS011;51229;51.980;6.722;2022-08-01T08:30:11;3.22;;;2.03;;
64795;SDS011;51229;51.980;6.722;2022-08-01T08:32:37;2.92;;;2.00;;
64795;SDS011;51229;51.980;6.722;2022-08-01T08:35:03;4.30;;;2.40;;
64795;SDS011;51229;51.980;6.722;2022-08-01T08:37:29;5.63;;;2.95;;
64795;SDS011;51229;51.980;6.722;2022-08-01T08:39:55;4.50;;;2.60;;
64795;SDS011;51229;51.980;6.722;2022-08-01T08:42:21;4.60;;;2.50;;
64795;SDS011;51229;51.980;6.722;2022-08-01T08:44:48;3.75;;;2.70;;
64795;SDS011;51229;51.980;6.722;2022-08-01T08:47:13;3.65;;;2.20;;
64795;SDS011;51229;51.980;6.722;2022-08-01T08:49:41;3.78;;;2.60;;
64795;SDS011;51229;51.980;6.722;2022-08-01T08:52:09;3.50;;;2.28;;
64795;SDS011;51229;51.980;6.722;2022-08-01T08:54:36;4.97;;;2.60;;
64795;SDS011;51229;51.980;6.722;2022-08-01T08:57:03;4.45;;;2.65;;
64795;SDS011;51229;51.980;6.722;2022-08-01T08:59:30;5.47;;;3.20;;
64795;SDS011;51229;51.980;6.722;2022-08-01T09:01:57;5.22;;;3.05;;
64795;SDS011;51229;51.980;6.722;2022-08-01T09:04:24;4.63;;;2.30;;
64795;SDS011;51229;51.980;6.722;2022-08-01T09:06:51;5.57;;;2.92;;
64795;SDS011;51229;51.980;6.722;2022-08-01T09:09:17;4.40;;;3.13;;
64795;SDS011;51229;51.980;6.722;2022-08-01T09:11:42;4.50;;;2.88;;
64795;SDS011;51229;51.980;6.722;2022-08-01T09:14:09;5.10;;;3.10;;
64795;SDS011;51229;51.980;6.722;2022-08-01T09:16:47;4.57;;;3.00;;
64795;SDS011;51229;51.980;6.722;2022-08-01T09:19:23;4.65;;;3.00;;
64795;SDS011;51229;51.980;6.722;2022-08-01T09:21:59;4.45;;;2.90;;
64795;SDS011;51229;51.980;6.722;2022-08-01T09:24:30;5.68;;;3.20;;
64795;SDS011;51229;51.980;6.722;2022-08-01T09:26:56;4.90;;;3.28;;
64795;SDS011;51229;51.980;6.722;2022-08-01T09:29:24;4.35;;;3.20;;
64795;SDS011;51229;51.980;6.722;2022-08-01T09:31:52;6.60;;;3.30;;
64795;SDS011;51229;51.980;6.722;2022-08-01T09:39:22;6.90;;;3.50;;
64795;SDS011;51229;51.980;6.722;2022-08-01T09:41:49;5.72;;;3.60;;
64795;SDS011;51229;51.980;6.722;2022-08-01T09:44:16;4.32;;;2.60;;
64795;SDS011;51229;51.980;6.722;2022-08-01T09:46:53;5.30;;;2.97;;
64795;SDS011;51229;51.980;6.722;2022-08-01T09:49:27;4.95;;;2.88;;
64795;SDS011;51229;51.980;6.722;2022-08-01T09:51:57;6.28;;;3.20;;
64795;SDS011;51229;51.980;6.722;2022-08-01T09:54:31;8.10;;;3.33;;
64795;SDS011;51229;51.980;6.722;2022-08-01T09:57:12;4.72;;;2.78;;
64795;SDS011;51229;51.980;6.722;2022-08-01T09:59:42;5.32;;;3.25;;
64795;SDS011;51229;51.980;6.722;2022-08-01T10:02:11;6.25;;;2.95;;
64795;SDS011;51229;51.980;6.722;2022-08-01T10:04:47;5.57;;;3.50;;
64795;SDS011;51229;51.980;6.722;2022-08-01T10:07:14;7.15;;;3.58;;
64795;SDS011;51229;51.980;6.722;2022-08-01T10:09:43;7.07;;;3.50;;
64795;SDS011;51229;51.980;6.722;2022-08-01T10:12:10;5.63;;;3.55;;
64795;SDS011;51229;51.980;6.722;2022-08-01T10:14:37;7.40;;;3.60;;
64795;SDS011;51229;51.980;6.722;2022-08-01T10:17:06;7.82;;;3.88;;
64795;SDS011;51229;51.980;6.722;2022-08-01T10:19:37;6.22;;;3.58;;
64795;SDS011;51229;51.980;6.722;2022-08-01T10:22:07;9.65;;;3.75;;
64795;SDS011;51229;51.980;6.722;2022-08-01T10:24:36;6.53;;;3.63;;
64795;SDS011;51229;51.980;6.722;2022-08-01T10:27:06;6.57;;;3.45;;
64795;SDS011;51229;51.980;6.722;2022-08-01T10:29:40;6.47;;;2.92;;
64795;SDS011;51229;51.980;6.722;2022-08-01T10:32:07;7.05;;;3.80;;
64795;SDS011;51229;51.980;6.722;2022-08-01T10:34:34;7.93;;;3.60;;
64795;SDS011;51229;51.980;6.722;2022-08-01T10:37:01;7.60;;;3.65;;
64795;SDS011;51229;51.980;6.722;2022-08-01T10:39:27;8.27;;;4.03;;
64795;SDS011;51229;51.980;6.722;2022-08-01T10:41:55;5.95;;;3.90;;
64795;SDS011;51229;51.980;6.722;2022-08-01T10:44:22;8.18;;;3.95;;
64795;SDS011;51229;51.980;6.722;2022-08-01T10:46:50;9.38;;;3.78;;
64795;SDS011;51229;51.980;6.722;2022-08-01T10:49:20;6.95;;;4.32;;
64795;SDS011;51229;51.980;6.722;2022-08-01T10:51:51;8.57;;;4.32;;
64795;SDS011;51229;51.980;6.722;2022-08-01T10:54:16;6.43;;;3.60;;
64795;SDS011;51229;51.980;6.722;2022-08-01T10:56:43;6.55;;;3.90;;
64795;SDS011;51229;51.980;6.722;2022-08-01T10:59:09;9.05;;;3.53;;
64795;SDS011;51229;51.980;6.722;2022-08-01T11:01:38;7.65;;;3.70;;
64795;SDS011;51229;51.980;6.722;2022-08-01T11:04:06;9.43;;;3.30;;
64795;SDS011;51229;51.980;6.722;2022-08-01T11:12:22;5.38;;;3.10;;
64795;SDS011;51229;51.980;6.722;2022-08-01T11:14:24;5.63;;;3.70;;
64795;SDS011;51229;51.980;6.722;2022-08-01T11:16:50;6.82;;;3.28;;
64795;SDS011;51229;51.980;6.722;2022-08-01T11:19:15;7.32;;;3.67;;
64795;SDS011;51229;51.980;6.722;2022-08-01T11:32:46;7.80;;;3.30;;
64795;SDS011;51229;51.980;6.722;2022-08-01T11:35:13;6.05;;;2.92;;
64795;SDS011;51229;51.980;6.722;2022-08-01T11:37:39;5.45;;;2.88;;
64795;SDS011;51229;51.980;6.722;2022-08-01T11:40:14;6.18;;;2.58;;
64795;SDS011;51229;51.980;6.722;2022-08-01T11:42:47;4.05;;;2.42;;
64795;SDS011;51229;51.980;6.722;2022-08-01T11:45:52;8.25;;;3.30;;
64795;SDS011;51229;51.980;6.722;2022-08-01T11:48:23;4.53;;;2.20;;
64795;SDS011;51229;51.980;6.722;2022-08-01T11:50:51;4.80;;;2.20;;
64795;SDS011;51229;51.980;6.722;2022-08-01T11:53:18;6.35;;;2.35;;
64795;SDS011;51229;51.980;6.722;2022-08-01T11:55:49;5.70;;;2.13;;
64795;SDS011;51229;51.980;6.722;2022-08-01T11:58:19;5.00;;;2.13;;
64795;SDS011;51229;51.980;6.722;2022-08-01T12:00:54;5.35;;;2.35;;
64795;SDS011;51229;51.980;6.722;2022-08-01T12:03:28;4.65;;;2.38;;
64795;SDS011;51229;51.980;6.722;2022-08-01T12:05:56;3.88;;;2.10;;
64795;SDS011;51229;51.980;6.722;2022-08-01T12:08:26;5.18;;;2.40;;
64795;SDS011;51229;51.980;6.722;2022-08-01T12:10:53;5.88;;;2.58;;
64795;SDS011;51229;51.980;6.722;2022-08-01T12:13:19;4.18;;;2.08;;
64795;SDS011;51229;51.980;6.722;2022-08-01T12:15:46;5.28;;;2.45;;
64795;SDS011;51229;51.980;6.722;2022-08-01T12:18:13;5.85;;;2.00;;
64795;SDS011;51229;51.980;6.722;2022-08-01T12:20:40;5.60;;;2.03;;
64795;SDS011;51229;51.980;6.722;2022-08-01T12:23:11;6.90;;;2.30;;
64795;SDS011;51229;51.980;6.722;2022-08-01T12:25:39;5.63;;;2.20;;
64795;SDS011;51229;51.980;6.722;2022-08-01T12:28:09;6.35;;;2.40;;
64795;SDS011;51229;51.980;6.722;2022-08-01T12:30:38;3.67;;;2.00;;
64795;SDS011;51229;51.980;6.722;2022-08-01T12:33:05;5.85;;;2.10;;
64795;SDS011;51229;51.980;6.722;2022-08-01T12:35:33;5.40;;;2.03;;
64795;SDS011;51229;51.980;6.722;2022-08-01T12:38:22;4.35;;;1.63;;
64795;SDS011;51229;51.980;6.722;2022-08-01T12:40:48;3.67;;;1.80;;
64795;SDS011;51229;51.980;6.722;2022-08-01T12:43:18;4.30;;;2.00;;
64795;SDS011;51229;51.980;6.722;2022-08-01T12:45:45;6.20;;;2.50;;
64795;SDS011;51229;51.980;6.722;2022-08-01T12:48:14;5.90;;;2.13;;
64795;SDS011;51229;51.980;6.722;2022-08-01T12:50:44;4.50;;;1.95;;
64795;SDS011;51229;51.980;6.722;2022-08-01T12:53:11;4.63;;;1.98;;
64795;SDS011;51229;51.980;6.722;2022-08-01T12:55:53;4.70;;;2.00;;
64795;SDS011;51229;51.980;6.722;2022-08-01T12:58:21;5.47;;;2.50;;
64795;SDS011;51229;51.980;6.722;2022-08-01T13:00:47;4.47;;;2.25;;
64795;SDS011;51229;51.980;6.722;2022-08-01T13:03:18;7.53;;;2.40;;
64795;SDS011;51229;51.980;6.722;2022-08-01T13:08:17;9.02;;;2.60;;
64795;SDS011;51229;51.980;6.722;2022-08-01T13:10:45;6.18;;;2.22;;
64795;SDS011;51229;51.980;6.722;2022-08-01T13:13:11;5.88;;;2.20;;
64795;SDS011;51229;51.980;6.722;2022-08-01T13:15:39;5.65;;;2.35;;
64795;SDS011;51229;51.980;6.722;2022-08-01T13:21:11;7.20;;;2.28;;
64795;SDS011;51229;51.980;6.722;2022-08-01T13:23:39;7.53;;;2.28;;
64795;SDS011;51229;51.980;6.722;2022-08-01T13:26:05;5.85;;;2.50;;
64795;SDS011;51229;51.980;6.722;2022-08-01T13:28:32;6.18;;;2.05;;
64795;SDS011;51229;51.980;6.722;2022-08-01T13:31:03;6.55;;;2.38;;
64795;SDS011;51229;51.980;6.722;2022-08-01T13:33:43;9.40;;;2.33;;
64795;SDS011;51229;51.980;6.722;2022-08-01T13:36:11;6.35;;;2.30;;
64795;SDS011;51229;51.980;6.722;2022-08-01T13:38:37;5.00;;;2.10;;
64795;SDS011;51229;51.980;6.722;2022-08-01T13:41:22;8.80;;;2.45;;
64795;SDS011;51229;51.980;6.722;2022-08-01T13:43:47;5.97;;;2.17;;
64795;SDS011;51229;51.980;6.722;2022-08-01T13:46:13;6.18;;;2.35;;
64795;SDS011;51229;51.980;6.722;2022-08-01T13:48:38;6.82;;;2.22;;
64795;SDS011;51229;51.980;6.722;2022-08-01T13:51:04;6.85;;;2.10;;
64795;SDS011;51229;51.980;6.722;2022-08-01T13:53:30;8.27;;;2.25;;
64795;SDS011;51229;51.980;6.722;2022-08-01T13:55:56;7.40;;;2.50;;
64795;SDS011;51229;51.980;6.722;2022-08-01T13:58:22;7.22;;;2.08;;
64795;SDS011;51229;51.980;6.722;2022-08-01T14:00:48;9.10;;;2.08;;
64795;SDS011;51229;51.980;6.722;2022-08-01T14:03:13;10.57;;;2.20;;
64795;SDS011;51229;51.980;6.722;2022-08-01T14:05:41;7.00;;;2.10;;
64795;SDS011;51229;51.980;6.722;2022-08-01T14:08:07;6.22;;;2.33;;
64795;SDS011;51229;51.980;6.722;2022-08-01T14:10:34;4.57;;;1.92;;
64795;SDS011;51229;51.980;6.722;2022-08-01T14:12:59;5.97;;;2.20;;
64795;SDS011;51229;51.980;6.722;2022-08-01T14:15:25;5.65;;;1.90;;
64795;SDS011;51229;51.980;6.722;2022-08-01T14:17:51;7.55;;;2.10;;
64795;SDS011;51229;51.980;6.722;2022-08-01T14:20:17;7.15;;;2.25;;
64795;SDS011;51229;51.980;6.722;2022-08-01T14:22:46;6.97;;;1.75;;
64795;SDS011;51229;51.980;6.722;2022-08-01T14:25:12;4.85;;;2.03;;
64795;SDS011;51229;51.980;6.722;2022-08-01T14:27:37;4.18;;;1.70;;
64795;SDS011;51229;51.980;6.722;2022-08-01T14:30:05;5.03;;;2.10;;
64795;SDS011;51229;51.980;6.722;2022-08-01T14:32:31;6.25;;;2.20;;
64795;SDS011;51229;51.980;6.722;2022-08-01T14:34:58;5.90;;;1.85;;
64795;SDS011;51229;51.980;6.722;2022-08-01T14:37:24;5.90;;;2.40;;
64795;SDS011;51229;51.980;6.722;2022-08-01T14:39:50;5.78;;;1.98;;
64795;SDS011;51229;51.980;6.722;2022-08-01T14:42:16;6.05;;;1.90;;
64795;SDS011;51229;51.980;6.722;2022-08-01T14:44:41;6.28;;;2.05;;
64795;SDS011;51229;51.980;6.722;2022-08-01T14:47:07;5.97;;;2.13;;
64795;SDS011;51229;51.980;6.722;2022-08-01T14:49:33;7.47;;;2.17;;
64795;SDS011;51229;51.980;6.722;2022-08-01T14:51:58;6.20;;;2.00;;
64795;SDS011;51229;51.980;6.722;2022-08-01T14:54:24;6.32;;;2.03;;
64795;SDS011;51229;51.980;6.722;2022-08-01T14:56:50;6.57;;;1.83;;
64795;SDS011;51229;51.980;6.722;2022-08-01T14:59:17;4.40;;;2.00;;
64795;SDS011;51229;51.980;6.722;2022-08-01T15:01:43;7.53;;;2.10;;
64795;SDS011;51229;51.980;6.722;2022-08-01T15:04:09;5.72;;;2.10;;
64795;SDS011;51229;51.980;6.722;2022-08-01T15:06:34;5.55;;;2.45;;
64795;SDS011;51229;51.980;6.722;2022-08-01T15:09:00;5.90;;;2.30;;
64795;SDS011;51229;51.980;6.722;2022-08-01T15:11:27;6.10;;;1.88;;
64795;SDS011;51229;51.980;6.722;2022-08-01T15:13:52;5.80;;;1.98;;
64795;SDS011;51229;51.980;6.722;2022-08-01T15:16:36;4.10;;;1.70;;
64795;SDS011;51229;51.980;6.722;2022-08-01T15:19:02;5.85;;;1.90;;
64795;SDS011;51229;51.980;6.722;2022-08-01T15:21:28;7.43;;;2.00;;
64795;SDS011;51229;51.980;6.722;2022-08-01T15:23:54;4.28;;;1.70;;
64795;SDS011;51229;51.980;6.722;2022-08-01T15:26:19;6.90;;;2.20;;
64795;SDS011;51229;51.980;6.722;2022-08-01T15:28:45;5.85;;;2.20;;